地図

経路データ

SID SEASON NUMBER BASIN SUBBASIN NAME ISO_TIME NATURE LAT LON WMO_WIND WMO_PRES WMO_AGENCY TRACK_TYPE DIST2LAND LANDFALL IFLAG USA_AGENCY USA_ATCF_ID USA_LAT USA_LON USA_RECORD USA_STATUS USA_WIND USA_PRES USA_SSHS USA_R34_NE USA_R34_SE USA_R34_SW USA_R34_NW USA_R50_NE USA_R50_SE USA_R50_SW USA_R50_NW USA_R64_NE USA_R64_SE USA_R64_SW USA_R64_NW USA_POCI USA_ROCI USA_RMW USA_EYE TOKYO_LAT TOKYO_LON TOKYO_GRADE TOKYO_WIND TOKYO_PRES TOKYO_R50_DIR TOKYO_R50_LONG TOKYO_R50_SHORT TOKYO_R30_DIR TOKYO_R30_LONG TOKYO_R30_SHORT TOKYO_LAND CMA_LAT CMA_LON CMA_CAT CMA_WIND CMA_PRES HKO_LAT HKO_LON HKO_CAT HKO_WIND HKO_PRES NEWDELHI_LAT NEWDELHI_LON NEWDELHI_GRADE NEWDELHI_WIND NEWDELHI_PRES NEWDELHI_CI NEWDELHI_DP NEWDELHI_POCI REUNION_LAT REUNION_LON REUNION_TYPE REUNION_WIND REUNION_PRES REUNION_TNUM REUNION_CI REUNION_RMW REUNION_R34_NE REUNION_R34_SE REUNION_R34_SW REUNION_R34_NW REUNION_R50_NE REUNION_R50_SE REUNION_R50_SW REUNION_R50_NW REUNION_R64_NE REUNION_R64_SE REUNION_R64_SW REUNION_R64_NW BOM_LAT BOM_LON BOM_TYPE BOM_WIND BOM_PRES BOM_TNUM BOM_CI BOM_RMW BOM_R34_NE BOM_R34_SE BOM_R34_SW BOM_R34_NW BOM_R50_NE BOM_R50_SE BOM_R50_SW BOM_R50_NW BOM_R64_NE BOM_R64_SE BOM_R64_SW BOM_R64_NW BOM_ROCI BOM_POCI BOM_EYE BOM_POS_METHOD BOM_PRES_METHOD NADI_LAT NADI_LON NADI_CAT NADI_WIND NADI_PRES WELLINGTON_LAT WELLINGTON_LON WELLINGTON_WIND WELLINGTON_PRES DS824_LAT DS824_LON DS824_STAGE DS824_WIND DS824_PRES TD9636_LAT TD9636_LON TD9636_STAGE TD9636_WIND TD9636_PRES TD9635_LAT TD9635_LON TD9635_WIND TD9635_PRES TD9635_ROCI NEUMANN_LAT NEUMANN_LON NEUMANN_CLASS NEUMANN_WIND NEUMANN_PRES MLC_LAT MLC_LON MLC_CLASS MLC_WIND MLC_PRES USA_GUST BOM_GUST BOM_GUST_PER REUNION_GUST REUNION_GUST_PER USA_SEAHGT USA_SEARAD_NE USA_SEARAD_SE USA_SEARAD_SW USA_SEARAD_NW STORM_SPEED STORM_DIR
1930256N16118 1930 46 WP MM NOT_NAMED 1930-09-13 10:00:00 NR 15.9000 117.600 main 224 224 __________O___ -1 15.9000 117.600 7 4 251
1930256N16118 1930 46 WP MM NOT_NAMED 1930-09-13 12:00:00 NR 15.8542 117.456 main 235 246 __________P___ -1 15.8542 117.456 7 4 254
1930256N16118 1930 46 WP MM NOT_NAMED 1930-09-13 15:00:00 NR 15.7963 117.231 main 268 268 __________P___ -1 15.7963 117.231 7 5 259
1930256N16118 1930 46 WP MM NOT_NAMED 1930-09-13 18:00:00 NR 15.7666 116.984 main 289 289 __________P___ -1 15.7666 116.984 7 5 268
1930256N16118 1930 46 WP MM NOT_NAMED 1930-09-13 21:00:00 NR 15.7819 116.704 main 321 321 __________P___ -1 15.7819 116.704 7 6 275
1930256N16118 1930 46 WP MM NOT_NAMED 1930-09-13 22:00:00 NR 15.8000 116.600 main 332 332 __________O___ -1 15.8000 116.600 7 6 283
1930256N16118 1930 46 WP MM NOT_NAMED 1930-09-14 00:00:00 NR 15.8561 116.376 main 353 353 __________P___ -1 15.8561 116.376 7 7 286
1930256N16118 1930 46 WP MM NOT_NAMED 1930-09-14 03:00:00 NR 15.9661 116.009 main 395 395 __________P___ -1 15.9661 116.009 7 8 286
1930256N16118 1930 46 WP MM NOT_NAMED 1930-09-14 06:00:00 NR 16.0653 115.620 main 438 438 __________P___ -1 16.0653 115.620 7 8 281
1930256N16118 1930 46 WP MM NOT_NAMED 1930-09-14 09:00:00 NR 16.1070 115.228 main 481 481 __________P___ -1 16.1070 115.228 7 8 274
1930256N16118 1930 46 WP MM NOT_NAMED 1930-09-14 10:00:00 NR 16.1000 115.100 main 491 491 __________O___ -1 16.1000 115.100 7 8 249
1930256N16118 1930 46 WP MM NOT_NAMED 1930-09-14 12:00:00 NR 15.9716 114.857 main 513 523 __________P___ -1 15.9716 114.857 7 8 236
1930256N16118 1930 46 WP MM NOT_NAMED 1930-09-14 15:00:00 NR 15.7085 114.500 main 548 539 __________P___ -1 15.7085 114.500 7 9 233
1930256N16118 1930 46 WP MM NOT_NAMED 1930-09-14 18:00:00 NR 15.4524 114.151 main 539 509 __________P___ -1 15.4524 114.151 7 8 239
1930256N16118 1930 46 WP MM NOT_NAMED 1930-09-14 21:00:00 NR 15.3064 113.811 main 509 498 __________P___ -1 15.3064 113.811 7 7 251
1930256N16118 1930 46 WP MM NOT_NAMED 1930-09-14 22:00:00 NR 15.3000 113.700 main 498 479 __________O___ -1 15.3000 113.700 7 7 291
1930256N16118 1930 46 WP MM NOT_NAMED 1930-09-15 00:00:00 NR 15.4312 113.479 main 479 440 __________P___ -1 15.4312 113.479 7 8 311
1930256N16118 1930 46 WP MM NOT_NAMED 1930-09-15 03:00:00 NR 15.7674 113.152 main 440 378 __________P___ -1 15.7674 113.152 7 10 320
1930256N16118 1930 46 WP MM NOT_NAMED 1930-09-15 06:00:00 NR 16.1847 112.829 main 378 323 __________P___ -1 16.1847 112.829 7 10 323
1930256N16118 1930 46 WP MM NOT_NAMED 1930-09-15 09:00:00 NR 16.5864 112.508 main 323 308 __________P___ -1 16.5864 112.508 7 10 321
1930256N16118 1930 46 WP MM NOT_NAMED 1930-09-15 10:00:00 NR 16.7000 112.400 main 308 285 __________O___ -1 16.7000 112.400 7 8 309
1930256N16118 1930 46 WP MM NOT_NAMED 1930-09-15 12:00:00 NR 16.8372 112.186 main 285 247 __________P___ -1 16.8372 112.186 7 7 299
1930256N16118 1930 46 WP MM NOT_NAMED 1930-09-15 15:00:00 NR 16.9864 111.864 main 247 213 __________P___ -1 16.9864 111.864 7 7 292
1930256N16118 1930 46 WP MM NOT_NAMED 1930-09-15 18:00:00 NR 17.0899 111.541 main 213 184 __________P___ -1 17.0899 111.541 7 7 287
1930256N16118 1930 46 WP MM NOT_NAMED 1930-09-15 21:00:00 NR 17.1727 111.212 main 184 177 __________P___ -1 17.1727 111.212 7 7 285
1930256N16118 1930 46 WP MM NOT_NAMED 1930-09-15 22:00:00 NR 17.2000 111.100 main 177 155 __________O___ -1 17.2000 111.100 7 7 288
1930256N16118 1930 46 WP MM NOT_NAMED 1930-09-16 00:00:00 NR 17.2775 110.875 main 155 123 __________P___ -1 17.2775 110.875 7 7 289
1930256N16118 1930 46 WP MM NOT_NAMED 1930-09-16 03:00:00 NR 17.3876 110.531 main 123 94 __________P___ -1 17.3876 110.531 7 7 288
1930256N16118 1930 46 WP MM NOT_NAMED 1930-09-16 06:00:00 NR 17.4877 110.180 main 94 67 __________P___ -1 17.4877 110.180 7 7 285
1930256N16118 1930 46 WP MM NOT_NAMED 1930-09-16 09:00:00 NR 17.5745 109.821 main 67 67 __________P___ -1 17.5745 109.821 7 7 284
1930256N16118 1930 46 WP MM NOT_NAMED 1930-09-16 10:00:00 NR 17.6000 109.700 main 67 67 __________O___ -1 17.6000 109.700 7 7 281
1930256N16118 1930 46 WP MM NOT_NAMED 1930-09-16 12:00:00 NR 17.6447 109.453 main 67 56 __________P___ -1 17.6447 109.453 7 7 279
1930256N16118 1930 46 WP MM NOT_NAMED 1930-09-16 15:00:00 NR 17.6992 109.076 main 70 70 __________P___ -1 17.6992 109.076 7 7 278
1930256N16118 1930 46 WP MM NOT_NAMED 1930-09-16 18:00:00 NR 17.7441 108.697 main 84 79 __________P___ -1 17.7441 108.697 7 7 277
1930256N16118 1930 46 WP MM NOT_NAMED 1930-09-16 21:00:00 NR 17.7858 108.323 main 89 89 __________P___ -1 17.7858 108.323 7 7 277
1930256N16118 1930 46 WP MM NOT_NAMED 1930-09-16 22:00:00 NR 17.8000 108.200 main 94 94 __________O___ -1 17.8000 108.200 7 7 278
1930256N16118 1930 46 WP MM NOT_NAMED 1930-09-17 00:00:00 NR 17.8357 107.969 main 107 104 __________P___ -1 17.8357 107.969 7 7 279
1930256N16118 1930 46 WP MM NOT_NAMED 1930-09-17 03:00:00 NR 17.8894 107.629 main 104 84 __________P___ -1 17.8894 107.629 7 7 279
1930256N16118 1930 46 WP MM NOT_NAMED 1930-09-17 06:00:00 NR 17.9407 107.285 main 84 43 __________P___ -1 17.9407 107.285 7 7 278
1930256N16118 1930 46 WP MM NOT_NAMED 1930-09-17 09:00:00 NR 17.9865 106.925 main 43 33 __________P___ -1 17.9865 106.925 7 7 277
1930256N16118 1930 46 WP MM NOT_NAMED 1930-09-17 10:00:00 NR 18.0000 106.800 main 33 10 __________O___ -1 18.0000 106.800 7 7 276
1930256N16118 1930 46 WP MM NOT_NAMED 1930-09-17 12:00:00 NR 18.0239 106.539 main 10 0 __________P___ -1 18.0239 106.539 7 8 275
1930256N16118 1930 46 WP MM NOT_NAMED 1930-09-17 15:00:00 NR 18.0529 106.125 main 0 0 __________P___ -1 18.0529 106.125 7 8 274
1930256N16118 1930 46 WP MM NOT_NAMED 1930-09-17 18:00:00 NR 18.0756 105.692 main 0 0 __________P___ -1 18.0756 105.692 7 8 273
1930256N16118 1930 46 WP MM NOT_NAMED 1930-09-17 21:00:00 NR 18.0943 105.249 main 0 0 __________P___ -1 18.0943 105.249 7 8 272
1930256N16118 1930 46 WP MM NOT_NAMED 1930-09-17 22:00:00 NR 18.1000 105.100 main 0 __________O___ -1 18.1000 105.100 7 9 272

デジタル台風データ・検索

IBTrACS Databaseについて

本データベースは、米国NOAAが公開する1842年以降の世界の熱帯低気圧のベストトラックデータアーカイブInternational Best Track Archive for Climate Stewardship (IBTrACS)を、ウェブで閲覧しやすい形式に変換したものです。

最終更新日:2021-12-01